Flight Track Log - Related Links

Times and Time Zones

All times are in EST time to prevent confusion due to time zone crossing. See the VRD260 flight status page for this flight to view local times or setup timezone preferences in your user account.

Time Position Orientation Groundspeed Altitude Reporting Facility
EST Latitude Longitude Course Direction KTS MPH feet Rate Location/Type
Wed 06:58:51 PM 36.0765 -115.1522 270° West 160 184 2,600  Level FlightAware ADS-B (EPLL / LCJ)
Wed 06:59:22 PM 36.0766 -115.1806 271° West 169 194 3,800 1,620 Climbing FlightAware ADS-B (EPLL / LCJ)
Wed 07:00:31 PM 36.0778 -115.2606 282° West 233 268 5,300 1,706 Climbing FlightAware ADS-B (EPLL / LCJ)
Wed 07:01:04 PM 36.1018 -115.2945 336° Northwest 249 287 6,700 2,222 Climbing FlightAware ADS-B (EPLL / LCJ)
Wed 07:02:46 PM 36.1636 -115.1852 87° East 296 341 10,300 2,012 Climbing FlightAware ADS-B (EPLL / LCJ)
Wed 07:03:51 PM 36.1725 -115.0646 85° East 332 382 12,300 1,782 Climbing FlightAware ADS-B (EPLL / LCJ)
Wed 07:07:12 PM 36.1989 -114.6439 91° East 401 461 18,200 1,765 Climbing FlightAware ADS-B (EPLL / LCJ)
Wed 07:07:49 PM 36.1979 -114.5570 91° East 409 471 19,300 1,800 Climbing FlightAware ADS-B (EPLL / LCJ)
Wed 07:08:22 PM 36.1970 -114.4834 91° East 410 472 20,300 1,826 Climbing FlightAware ADS-B (EPLL / LCJ)
Wed 07:08:58 PM 36.1958 -114.3958 90° East 415 478 21,400 1,714 Climbing FlightAware ADS-B (EPLL / LCJ)
Wed 07:09:32 PM 36.1948 -114.3177 90° East 418 481 22,300 1,727 Climbing FlightAware ADS-B (EPLL / LCJ)
Wed 07:10:04 PM 36.1948 -114.2397 87° East 418 481 23,300 1,531 Climbing FlightAware ADS-B (EPLL / LCJ)
Wed 07:11:10 PM 36.2132 -114.0836 83° East 426 490 24,800 1,408 Climbing FlightAware ADS-B (EPLL / LCJ)
Wed 07:11:42 PM 36.2226 -114.0039 83° East 429 494 25,600 1,182 Climbing FlightAware ADS-B (EPLL / LCJ)
Wed 07:12:16 PM 36.2323 -113.9209 82° East 441 507 26,100 840 Climbing FlightAware ADS-B (EPLL / LCJ)
Wed 07:13:22 PM 36.2618 -113.7583 67° East 453 521 27,000 902 Climbing FlightAware ADS-B (EPLL / LCJ)
Wed 07:14:29 PM 36.3187 -113.5958 68° East 466 536 28,100 1,033 Climbing FlightAware ADS-B (EPLL / LCJ)
Wed 07:15:24 PM 36.3604 -113.4750 67° East 472 543 29,100 1,078 Climbing FlightAware ADS-B
Wed 07:17:16 PM 36.4623 -113.1787 68° East 472 543 31,100 983 Climbing FlightAware ADS-B (EPLL / LCJ)
Wed 07:18:21 PM 36.5173 -113.0165 68° East 473 544 32,000 545 Climbing FlightAware ADS-B (EPLL / LCJ)
Wed 07:18:55 PM 36.5465 -112.9305 67° East 471 542 32,000  Level FlightAware ADS-B (EPLL / LCJ)
Wed 07:19:28 PM 36.5740 -112.8490 67° East 473 544 32,000 59 Level FlightAware ADS-B (EPLL / LCJ)
Wed 07:20:36 PM 36.6311 -112.6795 67° East 474 545 32,100 412 Climbing FlightAware ADS-B (EPLL / LCJ)
Wed 07:21:10 PM 36.6598 -112.5935 68° East 473 544 32,700 896 Climbing FlightAware ADS-B (EPLL / LCJ)
Wed 07:21:43 PM 36.6869 -112.5124 68° East 474 545 33,100 1,077 Climbing FlightAware ADS-B (EPLL / LCJ)
Wed 07:22:28 PM 36.6800 -112.5331 68° East 467 537 34,100 941 Climbing FlightAware ADS-B
Wed 07:23:25 PM 36.7722 -112.2556 68° East 471 542 34,700 593 Climbing FlightAware ADS-B (EPLL / LCJ)
Wed 07:23:59 PM 36.7996 -112.1721 68° East 473 544 35,000 273 Climbing FlightAware ADS-B (EPLL / LCJ)
Wed 07:24:31 PM 36.8265 -112.0900 68° East 474 545 35,000  Level FlightAware ADS-B (EPLL / LCJ)
Wed 07:25:37 PM 36.8812 -111.9237 68° East 472 543 35,000  Level FlightAware ADS-B (EPLL / LCJ)
Wed 07:26:42 PM 36.9351 -111.7584 68° East 472 543 35,000  Level FlightAware ADS-B (EPLL / LCJ)
Wed 07:27:43 PM 36.9823 -111.6129 68° East 472 543 35,000  Level FlightAware ADS-B
Wed 07:28:57 PM 37.0440 -111.4208 68° East 473 544 35,000  Level FlightAware ADS-B
Wed 07:31:02 PM 37.1456 -111.1023 69° East 472 543 35,000  Level FlightAware ADS-B
Wed 07:32:04 PM 37.1950 -110.9466 68° East 472 543 35,000  Level FlightAware ADS-B
Wed 07:32:58 PM 37.2391 -110.8069 69° East 473 544 35,000  Level FlightAware ADS-B (KGUC)
Wed 07:34:11 PM 37.2966 -110.6238 69° East 472 543 35,000  Level FlightAware ADS-B
Wed 07:35:13 PM 37.3462 -110.4641 69° East 472 543 35,000  Level FlightAware ADS-B
Wed 07:36:16 PM 37.3965 -110.3013 69° East 470 541 35,000  Level FlightAware ADS-B
Wed 07:37:18 PM 37.4446 -110.1454 69° East 470 541 35,000  Level FlightAware ADS-B
Wed 07:38:13 PM 37.4882 -110.0029 69° East 471 542 35,000  Level FlightAware ADS-B
Wed 07:39:08 PM 37.5229 -109.8889 69° East 472 543 35,000 71 Level FlightAware ADS-B
Wed 07:39:38 PM 37.5429 -109.8229 69° East 470 541 35,100 98 Climbing FlightAware ADS-B
Wed 07:40:09 PM 37.5758 -109.7142 69° East 468 539 35,100 -95 Level FlightAware ADS-B (KGUC)
Wed 07:40:41 PM 37.6014 -109.6298 69° East 467 537 35,000 -92 Descending FlightAware ADS-B
Wed 07:41:14 PM 37.6248 -109.5519 69° East 465 535 35,000  Level FlightAware ADS-B
Wed 07:41:49 PM 37.6541 -109.4545 69° East 464 534 35,000  Level FlightAware ADS-B (KGUC)
Wed 07:42:26 PM 37.6784 -109.3727 70° East 463 533 35,000  Level FlightAware ADS-B
Wed 07:42:56 PM 37.7043 -109.2857 70° East 465 535 35,000  Level FlightAware ADS-B
Wed 07:43:29 PM 37.7298 -109.2000 70° East 466 536 35,000  Level FlightAware ADS-B
Wed 07:43:59 PM 37.7517 -109.1263 70° East 466 536 35,000  Level FlightAware ADS-B (KGUC)
Wed 07:44:29 PM 37.7741 -109.0505 70° East 466 536 35,000  Level FlightAware ADS-B (KGUC)
Wed 07:45:10 PM 37.8045 -108.9462 72° East 466 536 35,000  Level FlightAware ADS-B
Wed 07:45:41 PM 37.8220 -108.8648 77° East 467 537 35,000  Level FlightAware ADS-B
Wed 07:46:11 PM 37.8349 -108.7960 77° East 466 536 35,000  Level FlightAware ADS-B
Wed 07:46:49 PM 37.8557 -108.6870 76° East 463 533 35,000  Level FlightAware ADS-B (KGUC)
Wed 07:47:19 PM 37.8712 -108.6059 77° East 460 529 35,000  Level FlightAware ADS-B (KGUC)
Wed 07:47:55 PM 37.8889 -108.5124 77° East 457 526 35,000  Level FlightAware ADS-B
Wed 07:48:28 PM 37.9049 -108.4277 77° East 454 522 35,000  Level FlightAware ADS-B
Wed 07:48:58 PM 37.9188 -108.3540 77° East 453 521 35,000  Level FlightAware ADS-B
Wed 07:49:29 PM 37.9349 -108.2683 77° East 454 522 35,000  Level FlightAware ADS-B (KGUC)
Wed 07:49:59 PM 37.9486 -108.1938 77° East 456 525 35,000  Level FlightAware ADS-B
Wed 07:50:34 PM 37.9657 -108.1024 77° East 456 525 35,000  Level FlightAware ADS-B
Wed 07:51:06 PM 37.9814 -108.0181 77° East 456 525 35,000 92 Level FlightAware ADS-B
Wed 07:51:39 PM 37.9967 -107.9351 77° East 456 525 35,100  Climbing FlightAware ADS-B (KGUC)
Wed 07:52:09 PM 38.0109 -107.8572 77° East 456 525 35,000 -86 Descending FlightAware ADS-B (KGUC)
Wed 07:52:49 PM 38.0298 -107.7527 77° East 456 525 35,000  Level FlightAware ADS-B (KGUC)
Wed 07:53:19 PM 38.0441 -107.6743 77° East 455 524 35,000  Level FlightAware ADS-B (KGUC)
Wed 07:53:55 PM 38.0611 -107.5802 77° East 456 525 35,000  Level FlightAware ADS-B
Wed 07:54:27 PM 38.0756 -107.4995 77° East 457 526 35,000  Level FlightAware ADS-B
Wed 07:54:57 PM 38.0894 -107.4216 77° East 459 528 35,000  Level FlightAware ADS-B
Wed 07:55:28 PM 38.1038 -107.3402 77° East 460 529 35,000  Level FlightAware ADS-B
Wed 07:55:58 PM 38.1185 -107.2580 77° East 462 532 35,000  Level FlightAware ADS-B
Wed 07:56:28 PM 38.1324 -107.1797 77° East 463 533 35,000  Level FlightAware ADS-B
Wed 07:56:59 PM 38.1472 -107.0954 77° East 464 534 35,000  Level FlightAware ADS-B (KGUC)
Wed 07:57:29 PM 38.1609 -107.0173 78° East 465 535 35,000  Level FlightAware ADS-B (KGUC)
Wed 07:57:59 PM 38.1747 -106.9385 78° East 465 535 35,000  Level FlightAware ADS-B (KGUC)
Wed 07:58:29 PM 38.1876 -106.8644 78° East 466 536 35,000  Level FlightAware ADS-B (KGUC)
Wed 07:59:05 PM 38.2056 -106.7603 78° East 467 537 35,000  Level FlightAware ADS-B
Wed 07:59:45 PM 38.2240 -106.6536 78° East 468 539 35,000  Level FlightAware ADS-B
Wed 08:00:15 PM 38.2378 -106.5725 78° East 469 540 35,000  Level FlightAware ADS-B
Wed 08:00:46 PM 38.2518 -106.4903 78° East 469 540 35,000  Level FlightAware ADS-B
Wed 08:01:22 PM 38.2685 -106.3922 78° East 471 542 35,000  Level FlightAware ADS-B
Wed 08:01:55 PM 38.2836 -106.3034 78° East 470 541 35,000  Level FlightAware ADS-B
Wed 08:02:25 PM 38.2972 -106.2220 78° East 470 541 35,000  Level FlightAware ADS-B
Wed 08:02:56 PM 38.3109 -106.1392 78° East 472 543 35,000  Level FlightAware ADS-B
Wed 08:03:28 PM 38.3255 -106.0511 78° East 472 543 35,000 95 Level FlightAware ADS-B
Wed 08:03:59 PM 38.3391 -105.9692 78° East 471 542 35,100  Climbing FlightAware ADS-B (EGNT / NCL)
Wed 08:04:31 PM 38.3536 -105.8806 78° East 470 541 35,000 -91 Descending FlightAware ADS-B
Wed 08:05:05 PM 38.3687 -105.7890 78° East 469 540 35,000  Level FlightAware ADS-B (EHAM / AMS)
Wed 08:05:37 PM 38.3817 -105.7087 78° East 468 539 35,000  Level FlightAware ADS-B (EGNT / NCL)
Wed 08:06:07 PM 38.3956 -105.6232 78° East 467 537 35,000  Level FlightAware ADS-B (EGNT / NCL)
Wed 08:06:37 PM 38.4085 -105.5437 78° East 467 537 35,000  Level FlightAware ADS-B
Wed 08:07:08 PM 38.4188 -105.4803 78° East 468 539 35,000  Level FlightAware ADS-B (EGNT / NCL)
Wed 08:07:41 PM 38.4362 -105.3705 79° East 470 541 35,000  Level FlightAware ADS-B (EGNT / NCL)
Wed 08:08:11 PM 38.4474 -105.2996 79° East 471 542 35,000 100 Level FlightAware ADS-B (EGNT / NCL)
Wed 08:08:41 PM 38.4619 -105.2087 79° East 468 539 35,100  Climbing FlightAware ADS-B
Wed 08:09:14 PM 38.4756 -105.1223 79° East 468 539 35,000 -91 Descending FlightAware ADS-B (EGNT / NCL)
Wed 08:09:47 PM 38.4896 -105.0323 79° East 469 540 35,000  Level FlightAware ADS-B
Wed 08:10:24 PM 38.5053 -104.9319 79° East 468 539 35,000  Level FlightAware ADS-B (EGNT / NCL)
Wed 08:11:01 PM 38.5193 -104.8416 79° East 469 540 35,000  Level FlightAware ADS-B (EGNT / NCL)
Wed 08:11:32 PM 38.5312 -104.7645 79° East 472 543 35,000  Level FlightAware ADS-B (EGNT / NCL)
Wed 08:12:10 PM 38.5502 -104.6408 79° East 472 543 35,000  Level FlightAware ADS-B (EGNT / NCL)
Wed 08:12:42 PM 38.5637 -104.5525 79° East 472 543 35,000  Level FlightAware ADS-B
Wed 08:13:15 PM 38.5769 -104.4655 79° East 469 540 35,000  Level FlightAware ADS-B (EGNT / NCL)
Wed 08:13:46 PM 38.5898 -104.3798 79° East 468 539 35,000  Level FlightAware ADS-B (EGNT / NCL)
Wed 08:14:18 PM 38.6021 -104.2980 79° East 468 539 35,000  Level FlightAware ADS-B (EGNT / NCL)
Wed 08:14:48 PM 38.6146 -104.2140 79° East 466 536 35,000  Level FlightAware ADS-B (EGNT / NCL)
Wed 08:15:18 PM 38.6252 -104.1427 79° East 466 536 35,000  Level FlightAware ADS-B
Wed 08:15:51 PM 38.6403 -104.0402 79° East 465 535 35,000  Level FlightAware ADS-B
Wed 08:16:22 PM 38.6514 -103.9646 79° East 466 536 35,000  Level FlightAware ADS-B (EGNT / NCL)
Wed 08:16:54 PM 38.6649 -103.8730 79° East 469 540 35,000  Level FlightAware ADS-B (EGNT / NCL)
Wed 08:17:24 PM 38.6769 -103.7902 80° East 470 541 35,000  Level FlightAware ADS-B (EGNT / NCL)
Wed 08:17:58 PM 38.6905 -103.6965 80° East 473 544 35,000  Level FlightAware ADS-B (EGNT / NCL)
Wed 08:18:32 PM 38.7036 -103.6052 80° East 476 548 35,000  Level FlightAware ADS-B
Wed 08:19:20 PM 38.7199 -103.4911 80° East 478 550 35,000  Level FlightAware ADS-B
Wed 08:19:50 PM 38.7347 -103.3870 80° East 480 552 35,000 100 Level FlightAware ADS-B (EGNT / NCL)
Wed 08:20:20 PM 38.7465 -103.3028 80° East 479 551 35,100  Climbing FlightAware ADS-B (EGNT / NCL)
Wed 08:20:51 PM 38.7573 -103.2247 80° East 479 551 35,000 -91 Descending FlightAware ADS-B (EGNT / NCL)
Wed 08:21:26 PM 38.7701 -103.1326 80° East 480 552 35,000  Level FlightAware ADS-B (EGNT / NCL)
Wed 08:21:57 PM 38.7838 -103.0347 80° East 483 556 35,000  Level FlightAware ADS-B (EGNT / NCL)
Wed 08:22:27 PM 38.7949 -102.9544 80° East 482 555 35,000  Level FlightAware ADS-B (EGNT / NCL)
Wed 08:23:01 PM 38.8082 -102.8575 80° East 480 552 35,000  Level FlightAware ADS-B
Wed 08:23:33 PM 38.8214 -102.7613 80° East 481 554 35,000  Level FlightAware ADS-B (EGNT / NCL)
Wed 08:24:05 PM 38.8324 -102.6788 80° East 482 555 35,000  Level FlightAware ADS-B
Wed 08:24:49 PM 38.8493 -102.5523 80° East 483 556 35,000 70 Level FlightAware ADS-B
Wed 08:25:31 PM 38.8636 -102.4461 80° East 480 552 35,100  Climbing FlightAware ADS-B (EGNT / NCL)
Wed 08:26:12 PM 38.8810 -102.3157 81° East 478 550 35,000 -83 Descending FlightAware ADS-B (EGNT / NCL)
Wed 08:26:43 PM 38.8909 -102.2394 81° East 476 548 35,000  Level FlightAware ADS-B (EGNT / NCL)
Wed 08:27:15 PM 38.9002 -102.1670 81° East 476 548 35,000  Level FlightAware ADS-B (EGNT / NCL)
Wed 08:27:45 PM 38.9141 -102.0595 81° East 477 549 35,000  Level FlightAware ADS-B (EGNT / NCL)
Wed 08:28:19 PM 38.9268 -101.9612 81° East 478 550 35,000  Level FlightAware ADS-B (EGNT / NCL)
Wed 08:28:53 PM 38.9388 -101.8682 81° East 479 551 35,000  Level FlightAware ADS-B (EGNT / NCL)
Wed 08:29:32 PM 38.9524 -101.7628 81° East 480 552 35,000  Level FlightAware ADS-B
Wed 08:30:21 PM 38.9660 -101.6542 81° East 481 554 35,000  Level FlightAware ADS-B
Wed 08:30:56 PM 38.9827 -101.5213 81° East 481 554 35,000  Level FlightAware ADS-B (EGNT / NCL)
Wed 08:31:26 PM 38.9924 -101.4431 81° East 481 554 35,000  Level FlightAware ADS-B
Wed 08:32:09 PM 39.0058 -101.3329 81° East 480 552 35,000  Level FlightAware ADS-B
Wed 08:32:52 PM 39.0218 -101.2021 81° East 478 550 35,000  Level FlightAware ADS-B
Wed 08:33:40 PM 39.0379 -101.0688 81° East 478 550 35,000  Level FlightAware ADS-B
Wed 08:34:24 PM 39.0528 -100.9440 81° East 478 550 35,000  Level FlightAware ADS-B
Wed 08:34:57 PM 39.0645 -100.8455 81° East 477 549 35,000  Level FlightAware ADS-B
Wed 08:35:51 PM 39.0818 -100.6993 81° East 477 549 35,000  Level FlightAware ADS-B
Wed 08:36:36 PM 39.0963 -100.5743 82° East 477 549 35,000  Level FlightAware ADS-B
Wed 08:37:06 PM 39.0985 -100.5552 82° East 477 549 35,000  Level FlightAware ADS-B
Wed 08:39:49 PM 39.1576 -100.0343 82° East 475 547 35,000  Level FlightAware ADS-B
Wed 08:40:47 PM 39.1736 -99.8950 82° East 475 547 35,000  Level Denver Center
Wed 08:41:49 PM 39.1936 -99.7058 82° East 477 549 35,000  Level Denver Center
Wed 08:42:50 PM 39.2122 -99.5358 82° East 475 547 35,000  Level Denver Center
Wed 08:43:52 PM 39.2292 -99.3739 82° East 476 548 35,000  Level Denver Center
Wed 08:44:54 PM 39.2492 -99.1850 82° East 477 549 35,000  Level Denver Center
Wed 08:46:08 PM 39.2656 -99.0228 83° East 479 551 35,000  Level Denver Center
Wed 08:47:11 PM 39.2858 -98.7994 83° East 469 540 35,000  Level Kansas City Center
Wed 08:48:15 PM 39.3019 -98.6367 83° East 473 544 35,000  Level Kansas City Center
Wed 08:49:15 PM 39.3231 -98.4564 81° East 489 563 35,000  Level Kansas City Center
Wed 08:50:16 PM 39.3386 -98.2864 83° East 481 554 35,000  Level Kansas City Center
Wed 08:51:20 PM 39.3542 -98.0914 84° East 469 540 35,000  Level Kansas City Center
Wed 08:52:21 PM 39.3731 -97.9267 82° East 478 550 35,000  Level Kansas City Center
Wed 08:53:22 PM 39.3908 -97.7375 83° East 490 564 35,000  Level Kansas City Center
Wed 08:54:25 PM 39.4058 -97.5664 83° East 485 558 35,000  Level Kansas City Center
Wed 08:55:27 PM 39.4186 -97.4047 84° East 476 548 35,000  Level Kansas City Center
Wed 08:56:27 PM 39.4364 -97.2119 83° East 477 549 35,000  Level Kansas City Center
Wed 08:57:31 PM 39.4497 -97.0475 84° East 478 550 35,000  Level Kansas City Center
Wed 08:58:31 PM 39.4667 -96.8558 83° East 479 551 35,000 97 Level Kansas City Center
Wed 08:59:35 PM 39.4850 -96.6922 82° East 479 551 35,200 432 Climbing Kansas City Center
Wed 09:00:36 PM 39.5275 -96.5058 73° East 480 552 35,900 780 Climbing Kansas City Center
Wed 09:01:38 PM 39.5597 -96.3422 76° East 487 560 36,800 528 Climbing Kansas City Center
Wed 09:02:41 PM 39.5728 -96.1753 84° East 488 562 37,000 97 Climbing Kansas City Center
Wed 09:03:42 PM 39.5872 -95.9758 85° East 494 568 37,000  Level Kansas City Center
Wed 09:04:43 PM 39.5989 -95.8064 85° East 494 568 37,000  Level Kansas City Center
Wed 09:05:45 PM 39.6128 -95.6050 85° East 496 571 37,000  Level Kansas City Center
Wed 09:06:48 PM 39.6231 -95.4344 85° East 495 570 37,000  Level Kansas City Center
Wed 09:07:48 PM 39.6336 -95.2622 85° East 495 570 37,000  Level Kansas City Center
Wed 09:08:50 PM 39.6450 -95.0619 86° East 495 570 37,000  Level Kansas City Center
Wed 09:09:53 PM 39.6553 -94.8894 86° East 495 570 37,000  Level Kansas City Center
Wed 09:10:55 PM 39.6667 -94.6858 86° East 503 579 37,000  Level Kansas City Center
Wed 09:11:56 PM 39.6769 -94.5089 86° East 509 586 37,000  Level Kansas City Center
Wed 09:12:58 PM 39.6875 -94.3039 86° East 509 586 37,000  Level Kansas City Center
Wed 09:13:59 PM 39.6964 -94.1269 86° East 510 587 37,000  Level Kansas City Center
Wed 09:15:03 PM 39.7061 -93.9483 86° East 514 592 37,000  Level Kansas City Center
Wed 09:16:04 PM 39.7161 -93.7328 86° East 519 597 37,000  Level Kansas City Center
Wed 09:17:04 PM 39.7244 -93.5433 87° East 527 606 37,000  Level Kansas City Center
Wed 09:18:09 PM 39.7336 -93.3553 86° East 527 606 37,000  Level Kansas City Center
Wed 09:19:10 PM 39.7431 -93.1697 86° East 524 603 37,000  Level Kansas City Center
Wed 09:20:10 PM 39.7497 -92.9811 87° East 525 604 37,000  Level Kansas City Center
Wed 09:21:14 PM 39.7578 -92.7933 87° East 525 604 37,000  Level Kansas City Center
Wed 09:22:15 PM 39.7658 -92.5722 87° East 525 604 37,000  Level Kansas City Center
Wed 09:23:16 PM 39.7739 -92.3856 87° East 524 603 37,000  Level Kansas City Center
Wed 09:24:18 PM 39.7800 -92.1997 87° East 524 603 37,000  Level Kansas City Center
Wed 09:25:19 PM 39.7853 -92.0133 88° East 523 602 37,000  Level Kansas City Center
Wed 09:26:22 PM 39.7933 -91.8253 87° East 523 602 37,000  Level Kansas City Center
Wed 09:27:23 PM 39.7992 -91.6014 88° East 523 602 37,000  Level Kansas City Center
Wed 09:28:25 PM 39.8039 -91.4139 88° East 523 602 37,000  Level Kansas City Center
Wed 09:32:13 PM 39.8229 -90.6649 88° East 531 611 37,000  Level FlightAware ADS-B
Wed 09:36:13 PM 39.8366 -89.9092 89° East 526 605 37,000  Level FlightAware ADS-B
Wed 09:37:39 PM 39.8366 -89.9092 89° East 529 609 37,000  Level FlightAware ADS-B
Wed 09:40:03 PM 39.8419 -89.2766 90° East 528 608 37,000  Level FlightAware ADS-B
Wed 09:40:46 PM 39.8422 -89.1561 90° East 528 608 37,000  Level FlightAware ADS-B
Wed 09:41:21 PM 39.8425 -88.9761 90° East 530 610 37,000  Level FlightAware ADS-B
Wed 09:41:55 PM 39.8426 -88.8227 90° East 532 612 37,000  Level FlightAware ADS-B
Wed 09:42:33 PM 39.8425 -88.7017 90° East 534 615 37,000  Level FlightAware ADS-B
Wed 09:43:13 PM 39.8421 -88.5708 90° East 536 617 37,000  Level FlightAware ADS-B
Wed 09:43:44 PM 39.8417 -88.4761 90° East 537 618 37,000  Level FlightAware ADS-B
Wed 09:44:24 PM 39.8411 -88.3424 90° East 539 620 37,000  Level FlightAware ADS-B
Wed 09:45:05 PM 39.8404 -88.2116 90° East 540 621 37,000  Level FlightAware ADS-B
Wed 09:45:35 PM 39.8398 -88.1144 90° East 539 620 37,000  Level FlightAware ADS-B
Wed 09:46:06 PM 39.8391 -88.0109 91° East 540 621 37,000  Level FlightAware ADS-B
Wed 09:46:46 PM 39.8381 -87.8961 91° East 541 623 37,000  Level FlightAware ADS-B
Wed 09:47:16 PM 39.8374 -87.8389 91° East 541 623 37,000  Level FlightAware ADS-B
Wed 09:47:47 PM 39.8359 -87.6903 91° East 541 623 37,000  Level FlightAware ADS-B
Wed 09:48:18 PM 39.8352 -87.5892 91° East 540 621 37,000  Level FlightAware ADS-B
Wed 09:49:02 PM 39.8341 -87.4912 91° East 542 624 37,000  Level FlightAware ADS-B
Wed 09:49:42 PM 39.8319 -87.3202 91° East 542 624 37,000  Level FlightAware ADS-B
Wed 09:50:15 PM 39.8302 -87.2128 91° East 543 625 37,000  Level FlightAware ADS-B
Wed 09:50:56 PM 39.8281 -87.0791 91° East 544 626 37,000  Level FlightAware ADS-B
Wed 09:51:40 PM 39.8256 -86.9260 91° East 543 625 37,000  Level FlightAware ADS-B
Wed 09:52:23 PM 39.8233 -86.7888 91° East 541 623 37,000  Level FlightAware ADS-B
Wed 09:53:02 PM 39.8211 -86.6689 91° East 540 621 37,000  Level FlightAware ADS-B
Wed 09:53:37 PM 39.8188 -86.5516 92° East 540 621 37,000  Level FlightAware ADS-B
Wed 09:54:20 PM 39.8180 -86.5114 84° East 536 617 37,000  Level FlightAware ADS-B
Wed 09:55:09 PM 39.8395 -86.2550 77° East 531 611 37,000  Level FlightAware ADS-B
Wed 09:58:08 PM 39.9539 -85.7108 75° East 528 608 37,000  Level FlightAware ADS-B
Wed 09:59:39 PM 40.0042 -85.4664 75° East 513 590 37,000  Level Cleveland Center
Wed 10:00:40 PM 40.0497 -85.2478 75° East 519 597 37,000  Level Cleveland Center
Wed 10:01:41 PM 40.0869 -85.0669 75° East 519 597 37,000  Level Cleveland Center
Wed 10:02:43 PM 40.1228 -84.8842 76° East 518 596 37,000  Level Cleveland Center
Wed 10:03:44 PM 40.1594 -84.7014 75° East 518 596 37,000  Level Cleveland Center
Wed 10:04:43 PM 40.1961 -84.5192 75° East 520 598 37,000  Level Indianapolis Center
Wed 10:05:44 PM 40.2314 -84.3339 76° East 521 600 37,000  Level Indianapolis Center
Wed 10:06:45 PM 40.2694 -84.1483 75° East 523 602 37,000  Level Indianapolis Center
Wed 10:07:47 PM 40.3328 -83.9769 64° Northeast 521 600 37,000  Level Indianapolis Center
Wed 10:08:48 PM 40.4144 -83.8247 55° Northeast 514 592 37,000  Level Indianapolis Center
Wed 10:09:49 PM 40.5025 -83.6761 52° Northeast 514 592 37,000  Level Indianapolis Center
Wed 10:10:50 PM 40.5906 -83.5225 53° Northeast 518 596 37,000  Level Indianapolis Center
Wed 10:11:52 PM 40.6786 -83.3697 53° Northeast 520 598 37,000  Level Indianapolis Center
Wed 10:12:53 PM 40.7658 -83.2167 53° Northeast 520 598 37,000  Level Indianapolis Center
Wed 10:13:54 PM 40.8594 -83.0508 53° Northeast 520 598 37,000  Level Indianapolis Center
Wed 10:20:00 PM 41.3800 -82.0841 65° Northeast 533 613 37,000  Level FlightAware ADS-B (CYYZ)
Wed 10:20:29 PM 41.4045 -82.0010 72° East 539 620 37,000  Level FlightAware ADS-B (CYYZ)
Wed 10:21:19 PM 41.4303 -81.8283 80° East 541 623 37,000  Level FlightAware ADS-B (CYYZ)
Wed 10:21:42 PM 41.4400 -81.7531 81° East 538 619 37,000  Level FlightAware ADS-B (EPLB / LUZ)
Wed 10:21:49 PM 41.4428 -81.7315 80° East 540 621 37,000  Level FlightAware ADS-B (CYYZ)
Wed 10:22:19 PM 41.4550 -81.6347 80° East 540 621 37,000  Level FlightAware ADS-B (CYYZ)
Wed 10:22:50 PM 41.4678 -81.5327 80° East 540 621 37,000  Level FlightAware ADS-B (CYYZ)
Wed 10:23:02 PM 41.4728 -81.4928 81° East 539 620 37,000  Level FlightAware ADS-B (EPLB / LUZ)
Wed 10:23:18 PM 41.4795 -81.4391 80° East 540 621 37,000  Level FlightAware ADS-B (CYYZ)
Wed 10:23:34 PM 41.4861 -81.3861 81° East 539 620 37,000  Level FlightAware ADS-B (EPLB / LUZ)
Wed 10:23:50 PM 41.4921 -81.3376 80° East 540 621 37,000  Level FlightAware ADS-B (CYYZ)
Wed 10:24:13 PM 41.5013 -81.2624 81° East 540 621 37,000  Level FlightAware ADS-B (EPLB / LUZ)
Wed 10:24:19 PM 41.5040 -81.2400 80° East 541 623 37,000  Level FlightAware ADS-B (CYYZ)
Wed 10:24:48 PM 41.5154 -81.1464 81° East 539 620 37,000  Level FlightAware ADS-B (EPLB / LUZ)
Wed 10:24:49 PM 41.5145 -81.1542 80° East 540 621 37,000  Level FlightAware ADS-B (CYYZ)
Wed 10:25:19 PM 41.5280 -81.0429 80° East 541 623 37,000  Level FlightAware ADS-B (CYYZ)
Wed 10:25:27 PM 41.5302 -81.0251 81° East 541 623 37,000  Level FlightAware ADS-B (EPLB / LUZ)
Wed 10:25:49 PM 41.5401 -80.9429 80° East 542 624 37,000  Level FlightAware ADS-B (CYYZ)
Wed 10:26:00 PM 41.5444 -80.9066 81° East 543 625 37,000  Level FlightAware ADS-B (EPLB / LUZ)
Wed 10:26:18 PM 41.5513 -80.8486 81° East 543 625 37,000  Level FlightAware ADS-B (CYYZ)
Wed 10:26:41 PM 41.5602 -80.7718 81° East 545 627 37,000  Level FlightAware ADS-B (EPLB / LUZ)
Wed 10:26:48 PM 41.5630 -80.7486 81° East 546 628 37,000  Level FlightAware ADS-B (CYYZ)
Wed 10:27:15 PM 41.5735 -80.6582 81° East 547 629 37,000  Level FlightAware ADS-B (EPLB / LUZ)
Wed 10:27:20 PM 41.5743 -80.6516 81° East 547 629 37,000  Level FlightAware ADS-B (CYYZ)
Wed 10:27:49 PM 41.5866 -80.5451 81° East 547 629 37,000  Level FlightAware ADS-B (CYYZ)
Wed 10:27:53 PM 41.5874 -80.5385 81° East 546 628 37,000  Level FlightAware ADS-B (EPLB / LUZ)
Wed 10:28:20 PM 41.5979 -80.4474 81° East 547 629 37,000  Level FlightAware ADS-B (CYYZ)
Wed 10:28:25 PM 41.5959 -80.4646 81° East 545 627 37,000  Level FlightAware ADS-B (EPLB / LUZ)
Wed 10:28:49 PM 41.6094 -80.3471 81° East 545 627 37,000  Level FlightAware ADS-B (CYYZ)
Wed 10:29:20 PM 41.6210 -80.2445 81° East 545 627 37,000 100 Level FlightAware ADS-B (CYYZ)
Wed 10:29:49 PM 41.6318 -80.1481 81° East 540 621 37,100  Climbing FlightAware ADS-B (CYYZ)
Wed 10:30:20 PM 41.6428 -80.0496 81° East 538 619 37,000 -100 Descending FlightAware ADS-B (CYYZ)
Wed 10:30:49 PM 41.6539 -79.9493 81° East 537 618 37,000  Level FlightAware ADS-B (CYYZ)
Wed 10:31:19 PM 41.6643 -79.8551 81° East 537 618 37,000  Level FlightAware ADS-B (CYYZ)
Wed 10:31:50 PM 41.6753 -79.7537 81° East 536 617 37,000  Level FlightAware ADS-B (CYYZ)
Wed 10:32:19 PM 41.6860 -79.6548 81° East 537 618 37,000  Level FlightAware ADS-B (CYYZ)
Wed 10:32:50 PM 41.6966 -79.5564 81° East 538 619 37,000  Level FlightAware ADS-B (CYYZ)
Wed 10:32:53 PM 41.6957 -79.5643 82° East 537 618 37,000  Level FlightAware ADS-B (EPLB / LUZ)
Wed 10:33:20 PM 41.7068 -79.4604 81° East 539 620 37,000  Level FlightAware ADS-B (CYYZ)
Wed 10:33:34 PM 41.7091 -79.4381 82° East 538 619 37,000  Level FlightAware ADS-B (EPLB / LUZ)
Wed 10:33:50 PM 41.7173 -79.3603 81° East 540 621 37,000  Level FlightAware ADS-B (CYYZ)
Wed 10:34:04 PM 41.7223 -79.3128 82° East 540 621 37,000  Level FlightAware ADS-B (EPLB / LUZ)
Wed 10:34:20 PM 41.7274 -79.2639 81° East 541 623 37,000  Level FlightAware ADS-B (CYYZ)
Wed 10:34:43 PM 41.7358 -79.1826 82° East 541 623 37,000  Level FlightAware ADS-B (EPLB / LUZ)
Wed 10:34:50 PM 41.7379 -79.1621 82° East 542 624 37,000  Level FlightAware ADS-B (CYYZ)
Wed 10:35:20 PM 41.7483 -79.0615 82° East 542 624 37,000  Level FlightAware ADS-B (CYYZ)
Wed 10:35:25 PM 41.7476 -79.0681 82° East 542 624 37,000  Level FlightAware ADS-B (EPLB / LUZ)
Wed 10:35:49 PM 41.7583 -78.9634 82° East 542 624 37,000  Level FlightAware ADS-B (CYYZ)
Wed 10:35:58 PM 41.7609 -78.9369 82° East 542 624 37,000  Level FlightAware ADS-B (EPLB / LUZ)
Wed 10:36:19 PM 41.7683 -78.8638 82° East 543 625 37,000  Level FlightAware ADS-B (CYYZ)
Wed 10:36:50 PM 41.7785 -78.7622 82° East 543 625 37,000  Level FlightAware ADS-B (CYYZ)
Wed 10:37:19 PM 41.7881 -78.6653 82° East 543 625 37,000 102 Level FlightAware ADS-B (CYYZ)
Wed 10:37:49 PM 41.7977 -78.5672 82° East 541 623 37,100  Climbing FlightAware ADS-B (CYYZ)
Wed 10:38:19 PM 41.8075 -78.4660 82° East 540 621 37,000 -98 Descending FlightAware ADS-B (CYYZ)
Wed 10:38:50 PM 41.8172 -78.3655 82° East 540 621 37,000  Level FlightAware ADS-B (CYYZ)
Wed 10:39:20 PM 41.8266 -78.2677 82° East 540 621 37,000  Level FlightAware ADS-B (CYYZ)
Wed 10:39:28 PM 41.8249 -78.2855 83° East 539 620 37,000  Level FlightAware ADS-B (EPLB / LUZ)
Wed 10:39:49 PM 41.8358 -78.1705 82° East 540 621 37,000  Level FlightAware ADS-B (CYYZ)
Wed 10:40:19 PM 41.8449 -78.0699 84° East 539 620 37,000  Level FlightAware ADS-B (CYYZ)
Wed 10:40:55 PM 41.8483 -77.9534 91° East 539 620 37,000  Level FlightAware ADS-B (CYYZ)
Wed 10:41:35 PM 41.8406 -77.8228 97° East 539 620 37,000  Level FlightAware ADS-B (CYYZ)
Wed 10:42:15 PM 41.8203 -77.6909 105° East 536 617 37,000  Level FlightAware ADS-B (CYYZ)
Wed 10:43:09 PM 41.7778 -77.5218 109° East 534 615 37,000  Level FlightAware ADS-B (CYYZ)
Wed 10:43:39 PM 41.7566 -77.4426 109° East 532 612 37,000  Level FlightAware ADS-B (CYYZ)
Wed 10:44:09 PM 41.7266 -77.3298 109° East 536 617 37,000  Level FlightAware ADS-B (CYYZ)
Wed 10:44:40 PM 41.7028 -77.2408 109° East 536 617 37,000  Level FlightAware ADS-B (CYYZ)
Wed 10:45:09 PM 41.6814 -77.1609 109° East 539 620 37,000  Level FlightAware ADS-B (CYYZ)
Wed 10:45:59 PM 41.6361 -76.9937 109° East 542 624 37,000  Level FlightAware ADS-B (CYYZ)
Wed 10:46:30 PM 41.6100 -76.8976 110° East 543 625 37,000 100 Level FlightAware ADS-B (CYYZ)
Wed 10:46:59 PM 41.5829 -76.7984 110° East 544 626 37,100  Climbing FlightAware ADS-B (CYYZ)
Wed 10:47:16 PM 41.5706 -76.7532 109° East 540 621 37,000 -103 Descending FlightAware ADS-B
Wed 10:47:57 PM 41.5394 -76.6397 110° East 543 625 37,000  Level FlightAware ADS-B (CYYZ)
Wed 10:48:13 PM 41.5608 -76.7175 109° East 539 620 37,000  Level FlightAware ADS-B (EPGD / GDN)
Wed 10:49:26 PM 41.4670 -76.3778 110° East 541 623 37,000  Level FlightAware ADS-B (CYYZ)
Wed 10:50:04 PM 41.4441 -76.2957 110° East 540 621 37,000 -121 Level FlightAware ADS-B (EPLB / LUZ)
Wed 10:51:05 PM 41.3714 -76.0366 111° Southeast 538 619 36,800 -990 Descending FlightAware ADS-B (EPLB / LUZ)
Wed 10:51:41 PM 41.3439 -75.9497 111° Southeast 539 620 35,400 -8,625 Descending New York Center
Wed 10:52:41 PM 41.2858 -75.7464 111° Southeast 539 620 23,000 -6,200 Descending New York Center
Wed 10:53:41 PM 41.2383 -75.5911 112° Southeast 526 605 23,000 -332 Level New York Center
Wed 10:59:01 PM 40.9795 -74.7130 98° East 469 540 20,900 -464 Descending FlightAware ADS-B (KSNC)
Wed 11:00:35 PM 40.9501 -74.4464 98° East 465 535 19,800 -518 Descending FlightAware ADS-B (KSNC)
Wed 11:02:41 PM 40.8889 -74.1404 99° East 415 478 19,000 -264 Descending FlightAware ADS-B (KSNC)
Wed 11:03:37 PM 40.8228 -74.0796 145° Southeast 342 394 19,000 -345 Level FlightAware ADS-B (KSNC)
Wed 11:04:08 PM 40.7755 -74.0364 145° Southeast 337 388 18,500 -1,569 Descending FlightAware ADS-B (KSNC)
Wed 11:04:42 PM 40.7321 -73.9975 146° Southeast 339 390 17,300 -1,754 Descending FlightAware ADS-B (KSNC)
Wed 11:05:13 PM 40.6967 -73.9660 146° Southeast 329 379 16,600 -1,455 Descending FlightAware ADS-B (KSNC)
Wed 11:05:48 PM 40.6475 -73.9228 146° Southeast 325 374 15,700 -1,629 Descending FlightAware ADS-B (KSNC)
Wed 11:06:23 PM 40.6077 -73.8880 146° Southeast 324 373 14,700 -1,886 Descending FlightAware ADS-B (KSNC)
Wed 11:06:58 PM 40.5866 -73.8696 147° Southeast 313 360 13,500 -2,400 Descending FlightAware ADS-B (KSNC)
Wed 11:07:28 PM 40.5257 -73.8167 147° Southeast 312 359 12,100 -2,296 Descending FlightAware ADS-B (KSNC)
Wed 11:08:19 PM 40.4644 -73.7668 149° Southeast 300 345 10,400 -2,154 Descending FlightAware ADS-B (KSNC)
Wed 11:08:46 PM 40.4416 -73.7272 115° Southeast 315 362 9,300 -2,172 Descending FlightAware ADS-B (KSNC)
Wed 11:09:17 PM 40.4167 -73.6667 115° Southeast 306 352 8,300 -1,780 Descending New York TRACON
Wed 11:10:17 PM 40.4333 -73.5833 75° East 295 339 6,600 -1,526 Descending New York TRACON
Wed 11:11:11 PM 40.4833 -73.5333 37° Northeast 266 306 5,400 -1,300 Descending New York TRACON
Wed 11:12:17 PM 40.5500 -73.5500 349° North 223 257 4,000 -1,238 Descending New York TRACON
Wed 11:13:17 PM 40.5833 -73.6167 303° West 188 216 2,800 -1,100 Descending New York TRACON
Wed 11:14:17 PM 40.6000 -73.6667 294° West 163 188 1,800 -889 Descending New York TRACON
Wed 11:15:05 PM 40.6167 -73.7000 303° West 131 151 1,200 -750 Descending New York TRACON
Wed 11:17:00 PM 40.6333 -73.7667 323° Northwest  Level FlightAware Approximate
Wed 11:24:00 PM 40.6398 -73.7789 323° Northwest  Level Estimated
Wed 11:25:00 PM 40.6398 -73.7789 323° Northwest  Level Estimated

Login

Don't have an account? Register now (free) for customized features, flight alerts, and more!